createdAt,value
2023-03-01T00:03:17.223Z,103153.81
2023-03-01T00:08:18.902Z,103143.97
2023-03-01T00:13:20.660Z,103138.59
2023-03-01T00:18:23.492Z,103137.53
2023-03-01T00:23:25.732Z,103137.63
2023-03-01T00:28:27.354Z,103134.44
2023-03-01T00:33:28.941Z,103134.44
2023-03-01T00:38:30.871Z,103127.41
2023-03-01T00:43:37.576Z,103134.78
2023-03-01T00:48:39.495Z,103125.72
2023-03-01T00:53:42.034Z,103135.84
2023-03-01T00:58:44.152Z,103129.59
2023-03-01T01:03:58.473Z,103114.34
2023-03-01T01:09:00.759Z,103114.63
2023-03-01T01:14:02.437Z,103115.63
2023-03-01T01:19:04.947Z,103107.41
2023-03-01T01:24:06.951Z,103109.31
2023-03-01T01:29:08.893Z,103104.75
2023-03-01T01:34:16.353Z,103096.81
2023-03-01T01:39:18.026Z,103083.19
2023-03-01T01:44:19.669Z,103075.22
2023-03-01T01:49:38.145Z,103064.31
2023-03-01T01:54:51.448Z,103064.47
2023-03-01T01:59:58.646Z,103068.06
2023-03-01T02:05:11.273Z,103059.09
2023-03-01T02:10:12.942Z,103062.88
2023-03-01T02:15:14.710Z,103061.13
2023-03-01T02:20:34.115Z,103063.75
2023-03-01T02:26:03.319Z,103060.22
2023-03-01T02:31:26.795Z,103052.16
2023-03-01T02:36:37.103Z,103046.78
2023-03-01T02:41:41.992Z,103042.41
2023-03-01T02:46:50.171Z,103043.34
2023-03-01T02:52:13.035Z,103032.38
2023-03-01T02:57:15.202Z,103032.63
2023-03-01T03:02:37.126Z,103027.66
2023-03-01T03:07:44.794Z,103018.69
2023-03-01T03:12:55.878Z,103021.41
2023-03-01T03:17:59.468Z,103013.41
2023-03-01T03:23:01.620Z,103004.63
2023-03-01T03:28:10.321Z,103002.69
2023-03-01T03:33:13.836Z,103006.81
2023-03-01T03:38:18.144Z,102994.53
2023-03-01T03:43:22.907Z,102987.47
2023-03-01T03:48:25.919Z,102986.16
2023-03-01T03:53:29.227Z,102985.44
2023-03-01T03:58:30.915Z,102987.50
2023-03-01T04:03:33.557Z,102988.63
2023-03-01T04:08:35.250Z,102989.94
2023-03-01T04:13:37.401Z,102994.56
2023-03-01T04:18:39.009Z,102990.72
2023-03-01T04:23:41.919Z,102976.53
2023-03-01T04:28:47.104Z,102977.84
2023-03-01T04:33:54.136Z,102966.47
2023-03-01T04:38:57.062Z,102969.28
2023-03-01T04:44:01.063Z,102968.22
2023-03-01T04:49:03.967Z,102963.13
2023-03-01T04:54:09.727Z,102937.81
2023-03-01T04:59:13.531Z,102958.00
2023-03-01T05:04:15.191Z,102952.81
2023-03-01T05:09:16.942Z,102963.19
2023-03-01T05:14:18.635Z,102963.44
2023-03-01T05:19:23.714Z,102957.13
2023-03-01T05:24:25.678Z,102944.56
2023-03-01T05:29:28.734Z,102943.53
2023-03-01T05:34:36.369Z,102941.75
2023-03-01T05:39:38.001Z,102928.94
2023-03-01T05:44:39.801Z,102925.28
2023-03-01T05:49:41.428Z,102923.88
2023-03-01T05:54:43.089Z,102916.28
2023-03-01T05:59:44.683Z,102918.50
2023-03-01T06:04:46.365Z,102920.56
2023-03-01T06:09:48.061Z,102922.16
2023-03-01T06:14:49.726Z,102920.25
2023-03-01T06:19:51.381Z,102906.41
2023-03-01T06:24:53.042Z,102910.63
2023-03-01T06:29:54.960Z,102902.84
2023-03-01T06:34:56.750Z,102899.13
2023-03-01T06:39:58.378Z,102901.09
2023-03-01T06:45:00.003Z,102900.56
2023-03-01T06:50:02.971Z,102903.56
2023-03-01T06:55:05.379Z,102905.03
2023-03-01T07:00:08.163Z,102901.53
2023-03-01T07:05:09.833Z,102895.50
2023-03-01T07:10:12.360Z,102902.31
2023-03-01T07:15:15.947Z,102910.66
2023-03-01T07:20:18.983Z,102920.38
2023-03-01T07:25:21.042Z,102923.25
2023-03-01T07:30:23.665Z,102928.53
2023-03-01T07:35:28.945Z,102916.94
2023-03-01T07:40:30.674Z,102927.72
2023-03-01T07:45:32.444Z,102934.00
2023-03-01T07:50:34.142Z,102934.81
2023-03-01T07:55:35.802Z,102936.78
2023-03-01T08:00:37.572Z,102932.22
2023-03-01T08:05:39.217Z,102931.19
2023-03-01T08:10:40.840Z,102922.66
2023-03-01T08:15:42.466Z,102927.03
2023-03-01T08:20:44.327Z,102928.13
2023-03-01T08:25:46.183Z,102929.44
2023-03-01T08:30:47.832Z,102931.75
2023-03-01T08:35:49.493Z,102923.84
2023-03-01T08:40:51.181Z,102916.56
2023-03-01T08:45:52.881Z,102905.34
2023-03-01T08:50:54.487Z,102900.31
2023-03-01T08:55:56.147Z,102908.97
2023-03-01T09:00:57.821Z,102908.16
2023-03-01T09:06:03.841Z,102910.00
2023-03-01T09:11:08.494Z,102906.09
2023-03-01T09:16:12.695Z,102902.50
2023-03-01T09:21:16.896Z,102907.19
2023-03-01T09:26:23.933Z,102904.00
2023-03-01T09:31:25.952Z,102909.44
2023-03-01T09:36:27.647Z,102899.94
2023-03-01T09:41:47.495Z,102894.69
2023-03-01T09:46:49.613Z,102891.25
2023-03-01T09:52:10.097Z,102887.00
2023-03-01T09:57:50.592Z,102884.75
2023-03-01T10:03:00.447Z,102889.13
2023-03-01T10:08:20.341Z,102879.03
2023-03-01T10:13:53.849Z,102881.31
2023-03-01T10:19:03.095Z,102874.53
2023-03-01T10:24:17.564Z,102874.56
2023-03-01T10:29:25.108Z,102871.44
2023-03-01T10:34:33.322Z,102859.44
2023-03-01T10:39:35.182Z,102858.00
2023-03-01T10:44:40.407Z,102858.56
2023-03-01T10:49:56.086Z,102840.94
2023-03-01T10:55:03.961Z,102841.13
2023-03-01T11:00:26.428Z,102837.66
2023-03-01T11:05:35.273Z,102814.81
2023-03-01T11:10:37.603Z,102824.94
2023-03-01T11:15:39.321Z,102823.44
2023-03-01T11:20:41.865Z,102817.81
2023-03-01T11:25:50.343Z,102812.56
2023-03-01T11:31:08.324Z,102811.97
2023-03-01T11:36:16.494Z,102801.66
2023-03-01T11:41:22.523Z,102797.69
2023-03-01T11:46:33.027Z,102787.16
2023-03-01T11:52:03.345Z,102780.63
2023-03-01T11:57:43.326Z,102777.16
2023-03-01T12:02:59.311Z,102771.47
2023-03-01T12:08:09.990Z,102763.00
2023-03-01T12:13:38.712Z,102756.72
2023-03-01T12:19:13.070Z,102746.53
2023-03-01T12:24:39.906Z,102738.69
2023-03-01T12:29:52.142Z,102726.84
2023-03-01T12:35:13.592Z,102732.44
2023-03-01T12:40:50.832Z,102723.50
2023-03-01T12:46:10.439Z,102727.00
2023-03-01T12:51:16.856Z,102725.41
2023-03-01T12:56:23.796Z,102715.13
2023-03-01T13:01:34.165Z,102711.44
2023-03-01T13:07:05.713Z,102701.03
2023-03-01T13:12:45.855Z,102693.28
2023-03-01T13:17:47.573Z,102693.94
2023-03-01T13:23:02.577Z,102688.44
2023-03-01T13:28:29.066Z,102687.78
2023-03-01T13:33:31.798Z,102679.56
2023-03-01T13:38:47.123Z,102681.97
2023-03-01T13:43:49.052Z,102662.84
2023-03-01T13:48:57.699Z,102669.50
2023-03-01T13:54:00.350Z,102670.84
2023-03-01T13:59:15.820Z,102665.66
2023-03-01T14:04:32.399Z,102647.94
2023-03-01T14:09:34.782Z,102637.72
2023-03-01T14:14:45.493Z,102627.47
2023-03-01T14:19:48.997Z,102622.94
2023-03-01T14:25:00.457Z,102617.69
2023-03-01T14:30:11.067Z,102609.53
2023-03-01T14:35:32.818Z,102601.16
2023-03-01T14:40:37.107Z,102591.25
2023-03-01T14:45:38.805Z,102578.97
2023-03-01T14:50:45.596Z,102580.28
2023-03-01T14:55:51.836Z,102571.44
2023-03-01T15:00:57.006Z,102567.06
2023-03-01T15:06:01.473Z,102569.41
2023-03-01T15:11:19.863Z,102558.69
2023-03-01T15:16:27.927Z,102558.25
2023-03-01T15:21:33.973Z,102559.44
2023-03-01T15:26:42.690Z,102552.03
2023-03-01T15:31:44.672Z,102548.16
2023-03-01T15:36:50.776Z,102547.50
2023-03-01T15:41:52.557Z,102537.91
2023-03-01T15:46:54.381Z,102542.09
2023-03-01T15:51:56.397Z,102536.34
2023-03-01T15:56:58.060Z,102531.88
2023-03-01T16:01:59.659Z,102522.06
2023-03-01T16:07:02.092Z,102528.75
2023-03-01T16:12:03.895Z,102517.19
2023-03-01T16:17:06.342Z,102519.91
2023-03-01T16:22:10.818Z,102517.44
2023-03-01T16:27:12.488Z,102515.94
2023-03-01T16:32:14.281Z,102518.75
2023-03-01T16:37:17.058Z,102507.47
2023-03-01T16:42:18.985Z,102510.66
2023-03-01T16:47:20.776Z,102499.97
2023-03-01T16:52:23.372Z,102501.63
2023-03-01T16:57:25.038Z,102499.81
2023-03-01T17:02:27.276Z,102495.88
2023-03-01T17:07:29.500Z,102498.69
2023-03-01T17:12:31.143Z,102490.31
2023-03-01T17:17:33.210Z,102501.97
2023-03-01T17:22:35.010Z,102497.63
2023-03-01T17:27:40.633Z,102488.47
2023-03-01T17:32:42.427Z,102493.78
2023-03-01T17:37:46.551Z,102495.00
2023-03-01T17:42:48.312Z,102505.28
2023-03-01T17:47:50.039Z,102502.78
2023-03-01T17:52:51.757Z,102509.00
2023-03-01T17:57:53.385Z,102516.53
2023-03-01T18:02:55.112Z,102512.19
2023-03-01T18:07:56.675Z,102508.25
2023-03-01T18:12:58.309Z,102521.03
2023-03-01T18:18:00.067Z,102514.56
2023-03-01T18:23:01.759Z,102520.59
2023-03-01T18:28:03.526Z,102524.88
2023-03-01T18:33:05.381Z,102534.16
2023-03-01T18:38:07.125Z,102531.53
2023-03-01T18:43:08.899Z,102532.63
2023-03-01T18:48:14.369Z,102532.19
2023-03-01T18:53:16.029Z,102530.00
2023-03-01T18:58:17.596Z,102536.53
2023-03-01T19:03:19.178Z,102537.31
2023-03-01T19:08:20.989Z,102532.16
2023-03-01T19:13:22.754Z,102536.53
2023-03-01T19:18:24.324Z,102537.63
2023-03-01T19:23:25.930Z,102542.19
2023-03-01T19:28:27.991Z,102543.72
2023-03-01T19:33:31.224Z,102536.72
2023-03-01T19:38:32.910Z,102531.56
2023-03-01T19:43:35.447Z,102528.34
2023-03-01T19:48:37.438Z,102517.63
2023-03-01T19:53:40.544Z,102523.38
2023-03-01T19:58:43.319Z,102514.78
2023-03-01T20:03:45.917Z,102518.00
2023-03-01T20:08:50.561Z,102511.88
2023-03-01T20:13:52.363Z,102505.44
2023-03-01T20:18:54.461Z,102512.63
2023-03-01T20:23:56.123Z,102516.97
2023-03-01T20:28:57.800Z,102512.97
2023-03-01T20:34:00.046Z,102507.41
2023-03-01T20:39:01.715Z,102512.63
2023-03-01T20:44:06.504Z,102525.16
2023-03-01T20:49:08.183Z,102517.59
2023-03-01T20:54:10.636Z,102524.41
2023-03-01T20:59:12.916Z,102528.22
2023-03-01T21:04:14.583Z,102537.50
2023-03-01T21:09:16.408Z,102537.88
2023-03-01T21:14:18.183Z,102539.81
2023-03-01T21:19:22.807Z,102548.50
2023-03-01T21:24:25.171Z,102556.72
2023-03-01T21:29:26.798Z,102559.56
2023-03-01T21:34:28.363Z,102567.66
2023-03-01T21:39:30.578Z,102571.91
2023-03-01T21:44:33.034Z,102566.63
2023-03-01T21:49:37.280Z,102566.28
2023-03-01T21:54:38.904Z,102575.53
2023-03-01T21:59:41.173Z,102564.56
2023-03-01T22:04:42.988Z,102562.66
2023-03-01T22:09:44.780Z,102559.47
2023-03-01T22:14:46.574Z,102558.72
2023-03-01T22:19:48.316Z,102561.66
2023-03-01T22:24:50.073Z,102561.91
2023-03-01T22:29:51.912Z,102562.56
2023-03-01T22:34:53.745Z,102564.22
2023-03-01T22:39:57.334Z,102558.25
2023-03-01T22:44:59.551Z,102564.22
2023-03-01T22:50:01.423Z,102564.34
2023-03-01T22:55:03.271Z,102570.19
2023-03-01T23:00:07.799Z,102563.19
2023-03-01T23:05:10.596Z,102548.66
2023-03-01T23:10:13.639Z,102547.03
2023-03-01T23:15:15.467Z,102548.59
2023-03-01T23:20:17.740Z,102530.78
2023-03-01T23:25:19.535Z,102536.31
2023-03-01T23:30:21.467Z,102525.63
2023-03-01T23:35:23.228Z,102532.03
2023-03-01T23:40:25.027Z,102530.47
2023-03-01T23:45:26.810Z,102525.28
2023-03-01T23:50:28.690Z,102526.00
2023-03-01T23:55:30.751Z,102519.75
